Time;durP1;ratioP1;P1;durP2;ratioP2;P2;SDS_P1;SDS_P2;PMS_P1;PMS_P2;Temp;Humidity;BMP_temperature;BMP_pressure;BME280_temperature;BME280_humidity;BME280_pressure;Samples;Min_cycle;Max_cycle;Signal;HPM_P1;HPM_P2
2022/06/15 00:04:43;;;;;;;6.93;3.65;;;;;;;;;;10429253;28;20055;-76
2022/06/15 00:09:47;;;;;;;10.53;3.90;;;;;;;;;;10411870;28;20049;-75
2022/06/15 00:14:50;;;;;;;9.07;3.53;;;;;;;;;;10431480;28;20114;-77
2022/06/15 00:19:52;;;;;;;6.95;3.75;;;;;;;;;;10436713;28;20063;-76
2022/06/15 00:24:57;;;;;;;8.63;3.60;;;;;;;;;;10409494;28;20029;-77
2022/06/15 00:29:59;;;;;;;5.60;3.50;;;;;;;;;;10417535;28;20128;-76
2022/06/15 00:35:02;;;;;;;10.68;4.07;;;;;;;;;;10427969;28;20524;-76
2022/06/15 00:40:08;;;;;;;10.20;3.73;;;;;;;;;;10414998;28;20526;-76
2022/06/15 00:45:11;;;;;;;5.40;2.00;;;;;;;;;;10401165;28;20033;-76
2022/06/15 00:50:17;;;;;;;11.82;3.28;;;;;;;;;;10433310;28;20037;-77
2022/06/15 00:55:23;;;;;;;9.65;4.18;;;;;;;;;;10425245;28;20128;-75
2022/06/15 01:00:27;;;;;;;14.73;4.10;;;;;;;;;;10412388;28;20052;-76
2022/06/15 01:05:37;;;;;;;9.90;3.95;;;;;;;;;;10428107;28;20481;-77
2022/06/15 01:10:55;;;;;;;9.48;3.70;;;;;;;;;;10427891;28;20041;-77
2022/06/15 01:16:04;;;;;;;9.85;3.58;;;;;;;;;;10430359;28;20128;-75
2022/06/15 01:21:13;;;;;;;9.02;4.15;;;;;;;;;;10412386;28;20500;-73
2022/06/15 01:26:39;;;;;;;7.68;4.00;;;;;;;;;;10414752;28;20059;-75
2022/06/15 01:31:58;;;;;;;7.07;4.20;;;;;;;;;;10412722;28;20508;-77
2022/06/15 01:37:03;;;;;;;6.50;4.05;;;;;;;;;;10426907;28;20188;-75
2022/06/15 01:42:08;;;;;;;8.18;4.15;;;;;;;;;;10432228;28;20040;-73
2022/06/15 01:47:13;;;;;;;8.00;3.65;;;;;;;;;;10416351;28;20103;-75
2022/06/15 01:52:19;;;;;;;5.90;3.53;;;;;;;;;;10415326;28;20488;-75
2022/06/15 01:57:23;;;;;;;6.65;3.97;;;;;;;;;;10430399;28;20048;-77
2022/06/15 02:02:31;;;;;;;9.05;3.67;;;;;;;;;;10420722;28;20609;-76
2022/06/15 02:07:37;;;;;;;4.30;2.65;;;;;;;;;;10440516;28;20101;-76
2022/06/15 02:12:44;;;;;;;9.93;4.53;;;;;;;;;;10429531;28;20041;-76
2022/06/15 02:17:50;;;;;;;9.70;4.65;;;;;;;;;;10431330;28;20521;-75
2022/06/15 02:22:55;;;;;;;7.18;3.75;;;;;;;;;;10433560;28;20393;-78
2022/06/15 02:28:00;;;;;;;7.75;4.15;;;;;;;;;;10440298;28;20643;-76
2022/06/15 02:33:11;;;;;;;7.65;3.90;;;;;;;;;;10436220;28;20052;-75
2022/06/15 02:38:14;;;;;;;10.15;4.30;;;;;;;;;;10442412;28;20401;-75
2022/06/15 02:43:18;;;;;;;10.15;4.28;;;;;;;;;;10421460;28;20171;-75
2022/06/15 02:48:23;;;;;;;9.55;4.30;;;;;;;;;;10446264;28;20498;-74
2022/06/15 02:53:28;;;;;;;7.70;4.57;;;;;;;;;;10431029;28;20076;-77
2022/06/15 02:58:32;;;;;;;11.48;3.92;;;;;;;;;;10437315;28;20501;-77
2022/06/15 03:03:36;;;;;;;12.45;4.57;;;;;;;;;;10433748;28;20519;-75
2022/06/15 03:08:40;;;;;;;7.97;4.72;;;;;;;;;;10419021;28;20036;-77
2022/06/15 03:13:42;;;;;;;6.97;3.85;;;;;;;;;;10430893;28;20343;-75
2022/06/15 03:18:46;;;;;;;12.25;4.95;;;;;;;;;;10420817;28;20091;-76
2022/06/15 03:23:49;;;;;;;8.68;3.95;;;;;;;;;;10419762;28;20424;-76
2022/06/15 03:28:52;;;;;;;8.88;3.60;;;;;;;;;;10432878;28;20036;-75
2022/06/15 03:33:56;;;;;;;9.60;4.00;;;;;;;;;;10437675;28;20489;-79
2022/06/15 03:38:58;;;;;;;7.28;4.30;;;;;;;;;;10434873;28;20033;-73
2022/06/15 03:44:01;;;;;;;10.55;4.38;;;;;;;;;;10432602;28;20071;-76
2022/06/15 03:49:06;;;;;;;11.07;4.57;;;;;;;;;;10433213;28;20531;-76
2022/06/15 03:54:09;;;;;;;6.50;3.13;;;;;;;;;;10416736;28;20040;-76
2022/06/15 03:59:13;;;;;;;8.65;4.70;;;;;;;;;;10431952;28;20047;-76
2022/06/15 04:04:17;;;;;;;9.80;4.47;;;;;;;;;;10426707;28;20447;-77
2022/06/15 04:09:22;;;;;;;14.98;4.90;;;;;;;;;;10433194;28;20095;-76
2022/06/15 04:14:25;;;;;;;7.55;4.30;;;;;;;;;;10432243;28;20033;-76
2022/06/15 04:19:31;;;;;;;9.65;5.05;;;;;;;;;;10437940;28;20037;-76
2022/06/15 04:24:36;;;;;;;9.52;4.85;;;;;;;;;;10410332;28;20069;-76
2022/06/15 04:29:39;;;;;;;9.25;5.00;;;;;;;;;;10414318;28;20095;-77
2022/06/15 04:34:43;;;;;;;13.07;4.63;;;;;;;;;;10416449;28;20173;-75
2022/06/15 04:39:46;;;;;;;8.90;4.80;;;;;;;;;;10413733;28;20505;-74
2022/06/15 04:44:48;;;;;;;9.10;4.63;;;;;;;;;;10414068;28;20041;-75
2022/06/15 04:49:53;;;;;;;8.77;5.03;;;;;;;;;;10429985;28;20394;-78
2022/06/15 04:54:56;;;;;;;7.53;4.15;;;;;;;;;;10411975;28;20041;-75
2022/06/15 04:59:59;;;;;;;6.22;3.80;;;;;;;;;;10414146;28;20052;-75
2022/06/15 05:05:03;;;;;;;7.28;3.65;;;;;;;;;;10427871;28;20116;-76
2022/06/15 05:10:07;;;;;;;11.20;4.15;;;;;;;;;;10408965;28;20053;-76
2022/06/15 05:15:13;;;;;;;9.48;3.97;;;;;;;;;;10428672;28;20402;-75
2022/06/15 05:20:17;;;;;;;7.55;4.38;;;;;;;;;;10416170;28;20071;-76
2022/06/15 05:25:27;;;;;;;6.60;4.05;;;;;;;;;;10403785;28;20045;-76
2022/06/15 05:30:30;;;;;;;3.88;2.05;;;;;;;;;;10390189;28;20037;-75
2022/06/15 05:35:34;;;;;;;8.33;3.83;;;;;;;;;;10395259;28;20034;-74
2022/06/15 05:40:37;;;;;;;6.07;3.17;;;;;;;;;;10429932;28;20049;-74
2022/06/15 05:45:40;;;;;;;8.43;3.33;;;;;;;;;;10392903;28;20114;-75
2022/06/15 05:50:44;;;;;;;7.30;3.97;;;;;;;;;;10421124;28;20117;-76
2022/06/15 05:55:47;;;;;;;4.80;3.03;;;;;;;;;;10413158;28;20662;-77
2022/06/15 06:00:49;;;;;;;8.97;3.70;;;;;;;;;;10397744;28;20037;-76
2022/06/15 06:05:53;;;;;;;7.40;4.20;;;;;;;;;;10410866;28;20106;-77
2022/06/15 06:10:56;;;;;;;5.88;3.28;;;;;;;;;;10409374;28;20201;-77
2022/06/15 06:15:59;;;;;;;6.47;3.80;;;;;;;;;;10415207;28;20471;-77
2022/06/15 06:21:05;;;;;;;3.95;1.95;;;;;;;;;;10437875;28;20042;-77
2022/06/15 06:26:13;;;;;;;6.93;3.13;;;;;;;;;;10429869;28;20134;-74
2022/06/15 06:31:19;;;;;;;6.78;3.65;;;;;;;;;;10421670;28;20143;-76
2022/06/15 06:36:28;;;;;;;8.23;2.50;;;;;;;;;;10434440;28;20116;-78
2022/06/15 06:41:31;;;;;;;7.40;3.22;;;;;;;;;;10416582;28;20068;-77
2022/06/15 06:46:37;;;;;;;6.97;4.15;;;;;;;;;;10418540;28;20485;-76
2022/06/15 06:51:41;;;;;;;6.07;3.20;;;;;;;;;;10418584;28;20041;-76
2022/06/15 06:56:45;;;;;;;5.38;3.42;;;;;;;;;;10433101;28;20501;-76
2022/06/15 07:01:48;;;;;;;6.13;3.47;;;;;;;;;;10418326;28;20135;-76
2022/06/15 07:06:55;;;;;;;5.78;3.30;;;;;;;;;;10415899;28;20036;-76
2022/06/15 07:11:58;;;;;;;9.25;3.47;;;;;;;;;;10421222;28;20128;-76
2022/06/15 07:17:01;;;;;;;5.10;3.40;;;;;;;;;;10429418;28;20515;-76
2022/06/15 07:22:05;;;;;;;7.55;3.25;;;;;;;;;;10410762;28;20077;-77
2022/06/15 07:27:08;;;;;;;5.97;3.33;;;;;;;;;;10418235;28;20040;-76
2022/06/15 07:32:11;;;;;;;5.32;2.95;;;;;;;;;;10417287;28;20043;-76
2022/06/15 07:37:16;;;;;;;3.45;2.33;;;;;;;;;;10434942;28;20044;-74
2022/06/15 07:42:39;;;;;;;6.25;3.47;;;;;;;;;;10435171;28;20585;-75
2022/06/15 07:53:07;;;;;;;9.85;4.40;;;;;;;;;;10430621;28;20083;-76
2022/06/15 07:58:11;;;;;;;6.40;3.55;;;;;;;;;;10416999;28;20033;-75
2022/06/15 08:03:14;;;;;;;6.88;3.53;;;;;;;;;;10432466;28;20041;-75
2022/06/15 08:08:19;;;;;;;6.47;3.60;;;;;;;;;;10414838;28;20077;-77
2022/06/15 08:13:22;;;;;;;6.22;3.63;;;;;;;;;;10430379;28;20045;-76
2022/06/15 08:18:26;;;;;;;4.88;3.22;;;;;;;;;;10430523;28;20029;-76
2022/06/15 08:23:32;;;;;;;7.70;4.00;;;;;;;;;;10423755;28;20106;-76
2022/06/15 08:28:38;;;;;;;7.03;3.63;;;;;;;;;;10414799;28;20642;-78
2022/06/15 08:33:41;;;;;;;5.57;3.40;;;;;;;;;;10422771;28;20125;-77
2022/06/15 08:38:49;;;;;;;7.20;3.40;;;;;;;;;;10430605;28;20082;-77
2022/06/15 08:43:57;;;;;;;7.22;3.88;;;;;;;;;;10425245;28;20517;-76
2022/06/15 08:49:10;;;;;;;5.03;3.50;;;;;;;;;;10416489;28;20041;-74
2022/06/15 08:54:19;;;;;;;5.47;3.33;;;;;;;;;;10426605;28;20095;-76
2022/06/15 08:59:28;;;;;;;4.53;3.27;;;;;;;;;;10427735;28;20451;-76
2022/06/15 09:04:35;;;;;;;5.88;3.53;;;;;;;;;;10415900;28;20405;-75
2022/06/15 09:09:48;;;;;;;6.47;3.83;;;;;;;;;;10429067;28;20037;-73
2022/06/15 09:14:55;;;;;;;3.75;3.22;;;;;;;;;;10422143;28;20048;-75
2022/06/15 09:20:02;;;;;;;8.07;4.00;;;;;;;;;;10440710;28;20041;-76
2022/06/15 09:25:09;;;;;;;4.90;3.85;;;;;;;;;;10417145;28;20058;-76
2022/06/15 09:30:14;;;;;;;4.47;4.00;;;;;;;;;;10438216;28;20029;-76
2022/06/15 09:35:18;;;;;;;5.20;3.60;;;;;;;;;;10439852;28;20057;-76
2022/06/15 09:40:28;;;;;;;6.47;4.00;;;;;;;;;;10437386;28;20065;-74
2022/06/15 09:45:32;;;;;;;4.38;3.72;;;;;;;;;;10421034;28;20462;-75
2022/06/15 09:50:38;;;;;;;6.68;3.95;;;;;;;;;;10439873;28;20040;-76
2022/06/15 09:55:44;;;;;;;5.70;3.92;;;;;;;;;;10426507;28;20028;-76
2022/06/15 10:01:08;;;;;;;4.32;3.60;;;;;;;;;;10409465;28;20334;-76
2022/06/15 10:06:16;;;;;;;4.88;3.05;;;;;;;;;;10435253;28;20040;-76
2022/06/15 10:11:25;;;;;;;4.05;3.47;;;;;;;;;;10419273;28;20387;-76
2022/06/15 10:16:29;;;;;;;5.82;4.43;;;;;;;;;;10434689;28;20041;-76
2022/06/15 10:21:33;;;;;;;4.13;3.72;;;;;;;;;;10436776;28;20037;-77
2022/06/15 10:26:40;;;;;;;4.47;3.20;;;;;;;;;;10415139;28;20136;-74
2022/06/15 10:31:44;;;;;;;4.03;3.63;;;;;;;;;;10438004;28;20032;-75
2022/06/15 10:36:51;;;;;;;3.58;3.28;;;;;;;;;;10415148;28;20037;-75
2022/06/15 10:41:59;;;;;;;7.72;4.18;;;;;;;;;;10407043;28;20633;-77
2022/06/15 10:47:03;;;;;;;4.07;3.38;;;;;;;;;;10428361;28;20029;-76
2022/06/15 10:52:16;;;;;;;4.90;3.42;;;;;;;;;;10433772;28;20462;-77
2022/06/15 11:02:42;;;;;;;5.57;3.92;;;;;;;;;;10415785;28;20051;-77
2022/06/15 11:07:48;;;;;;;5.60;3.30;;;;;;;;;;10436273;28;20798;-75
2022/06/15 11:12:55;;;;;;;9.05;5.05;;;;;;;;;;10416230;28;20067;-75
2022/06/15 11:18:06;;;;;;;5.75;3.35;;;;;;;;;;10437367;28;20379;-76
2022/06/15 11:23:11;;;;;;;6.40;4.05;;;;;;;;;;10433286;28;20477;-77
2022/06/15 11:28:18;;;;;;;4.05;3.42;;;;;;;;;;10434932;28;20033;-76
2022/06/15 11:33:25;;;;;;;4.47;3.83;;;;;;;;;;10431016;28;20539;-75
2022/06/15 11:38:34;;;;;;;8.65;4.55;;;;;;;;;;10412625;28;20120;-76
2022/06/15 11:43:43;;;;;;;5.15;4.10;;;;;;;;;;10432731;28;20045;-74
2022/06/15 11:48:53;;;;;;;3.70;3.38;;;;;;;;;;10432702;28;20083;-77
2022/06/15 11:54:03;;;;;;;5.95;3.70;;;;;;;;;;10416310;28;20127;-75
2022/06/15 11:59:11;;;;;;;4.25;3.72;;;;;;;;;;10431259;28;20033;-76
2022/06/15 12:04:43;;;;;;;5.85;3.60;;;;;;;;;;10411399;28;20036;-76
2022/06/15 12:09:53;;;;;;;3.28;2.97;;;;;;;;;;10433475;28;20040;-74
2022/06/15 12:15:00;;;;;;;6.13;3.30;;;;;;;;;;10412462;28;20040;-76
2022/06/15 12:20:07;;;;;;;5.60;3.80;;;;;;;;;;10430604;28;20025;-75
2022/06/15 12:25:14;;;;;;;4.72;3.38;;;;;;;;;;10410197;28;20864;-76
2022/06/15 12:30:27;;;;;;;5.43;3.60;;;;;;;;;;10415499;28;20033;-77
2022/06/15 12:35:33;;;;;;;5.63;3.30;;;;;;;;;;10416391;28;20128;-76
2022/06/15 12:40:45;;;;;;;7.65;3.63;;;;;;;;;;10416892;28;20025;-75
2022/06/15 12:45:52;;;;;;;5.50;4.20;;;;;;;;;;10420049;28;20128;-74
2022/06/15 12:51:00;;;;;;;5.47;3.10;;;;;;;;;;10428389;28;20075;-77
2022/06/15 12:56:14;;;;;;;4.00;2.97;;;;;;;;;;10431035;28;20049;-77
2022/06/15 13:01:20;;;;;;;5.95;3.17;;;;;;;;;;10414697;28;20033;-76
2022/06/15 13:06:24;;;;;;;2.88;2.58;;;;;;;;;;10428404;28;20511;-76
2022/06/15 13:11:28;;;;;;;4.80;3.20;;;;;;;;;;10429833;28;20045;-75
2022/06/15 13:16:38;;;;;;;8.02;3.20;;;;;;;;;;10409664;28;20042;-75
2022/06/15 13:21:51;;;;;;;4.40;2.80;;;;;;;;;;10408831;28;20095;-76
2022/06/15 13:26:56;;;;;;;5.78;3.72;;;;;;;;;;10428620;28;20421;-74
2022/06/15 13:32:01;;;;;;;3.47;3.00;;;;;;;;;;10411683;28;20090;-75
2022/06/15 13:37:11;;;;;;;4.13;3.17;;;;;;;;;;10428159;28;20063;-75
2022/06/15 13:42:21;;;;;;;3.97;3.05;;;;;;;;;;10429015;28;20041;-76
2022/06/15 13:47:27;;;;;;;4.05;3.25;;;;;;;;;;10431131;28;20432;-76
2022/06/15 13:52:31;;;;;;;4.80;2.90;;;;;;;;;;10413459;28;20048;-75
2022/06/15 13:57:46;;;;;;;8.13;3.17;;;;;;;;;;10423734;28;20494;-75
2022/06/15 14:03:02;;;;;;;4.57;3.23;;;;;;;;;;10433112;28;20072;-76
2022/06/15 14:08:10;;;;;;;4.22;2.83;;;;;;;;;;10421455;28;20521;-77
2022/06/15 14:13:22;;;;;;;4.93;3.00;;;;;;;;;;10429138;28;20044;-76
2022/06/15 14:18:37;;;;;;;7.80;3.25;;;;;;;;;;10419795;28;20087;-76
2022/06/15 14:23:40;;;;;;;4.30;3.03;;;;;;;;;;10417779;28;20077;-77
2022/06/15 14:28:50;;;;;;;4.35;2.92;;;;;;;;;;10432452;28;20049;-75
2022/06/15 14:33:55;;;;;;;4.95;3.30;;;;;;;;;;10431236;28;20075;-76
2022/06/15 14:39:01;;;;;;;4.32;3.08;;;;;;;;;;10432382;28;20041;-75
2022/06/15 14:44:05;;;;;;;3.80;3.15;;;;;;;;;;10430317;28;20417;-77
2022/06/15 14:49:12;;;;;;;6.85;3.33;;;;;;;;;;10420043;28;20067;-76
2022/06/15 14:54:16;;;;;;;6.07;3.00;;;;;;;;;;10433636;28;20045;-76
2022/06/15 14:59:22;;;;;;;4.00;3.20;;;;;;;;;;10425206;28;20037;-76
2022/06/15 15:04:27;;;;;;;4.15;2.90;;;;;;;;;;10424214;28;20056;-73
2022/06/15 15:09:30;;;;;;;4.35;3.22;;;;;;;;;;10409592;28;20040;-76
2022/06/15 15:14:33;;;;;;;5.53;3.50;;;;;;;;;;10427463;28;20044;-76
2022/06/15 15:19:41;;;;;;;4.22;3.25;;;;;;;;;;10438043;28;20133;-73
2022/06/15 15:24:45;;;;;;;7.35;3.65;;;;;;;;;;10435612;28;20041;-76
2022/06/15 15:35:14;;;;;;;6.90;3.90;;;;;;;;;;10419432;28;20076;-76
2022/06/15 15:40:18;;;;;;;5.72;3.08;;;;;;;;;;10404172;28;20094;-73
2022/06/15 15:45:23;;;;;;;5.93;3.30;;;;;;;;;;10427044;28;20067;-77
2022/06/15 15:50:27;;;;;;;5.50;3.90;;;;;;;;;;10421136;28;20124;-75
2022/06/15 15:55:31;;;;;;;10.20;6.15;;;;;;;;;;10424365;28;20112;-76
2022/06/15 16:00:34;;;;;;;7.90;4.32;;;;;;;;;;10413244;28;20120;-76
2022/06/15 16:05:39;;;;;;;6.80;4.65;;;;;;;;;;10431501;28;20037;-75
2022/06/15 16:10:42;;;;;;;6.63;3.38;;;;;;;;;;10402800;28;20045;-76
2022/06/15 16:15:48;;;;;;;8.40;3.90;;;;;;;;;;10416936;28;20033;-76
2022/06/15 16:20:54;;;;;;;8.60;4.95;;;;;;;;;;10415465;28;20045;-75
2022/06/15 16:25:57;;;;;;;7.13;4.57;;;;;;;;;;10411996;28;20098;-77
2022/06/15 16:31:05;;;;;;;4.25;3.30;;;;;;;;;;10428842;28;20048;-75
2022/06/15 16:36:10;;;;;;;10.98;6.53;;;;;;;;;;10428806;28;20073;-77
2022/06/15 16:41:14;;;;;;;7.63;4.03;;;;;;;;;;10435267;28;20037;-77
2022/06/15 16:46:18;;;;;;;5.00;3.65;;;;;;;;;;10422759;28;20032;-78
2022/06/15 16:51:23;;;;;;;4.55;3.28;;;;;;;;;;10438743;28;20048;-75
2022/06/15 16:56:29;;;;;;;6.93;3.70;;;;;;;;;;10432549;28;20036;-76
2022/06/15 17:01:32;;;;;;;11.50;4.45;;;;;;;;;;10429987;28;20044;-75
2022/06/15 17:06:38;;;;;;;9.15;4.32;;;;;;;;;;10413935;28;20512;-76
2022/06/15 17:11:42;;;;;;;9.95;4.07;;;;;;;;;;10413145;28;20126;-78
2022/06/15 17:16:45;;;;;;;7.10;3.95;;;;;;;;;;10428044;28;20036;-75
2022/06/15 17:21:50;;;;;;;7.32;4.30;;;;;;;;;;10403999;28;20484;-75
2022/06/15 17:27:14;;;;;;;10.10;6.07;;;;;;;;;;10428789;28;20456;-76
2022/06/15 17:32:17;;;;;;;6.28;4.10;;;;;;;;;;10418901;28;20045;-74
2022/06/15 17:37:22;;;;;;;8.75;4.63;;;;;;;;;;10419362;28;20170;-76
2022/06/15 17:42:25;;;;;;;9.57;4.00;;;;;;;;;;10412546;28;20510;-77
2022/06/15 17:47:28;;;;;;;6.72;4.40;;;;;;;;;;10445070;28;20072;-76
2022/06/15 17:52:33;;;;;;;8.70;5.10;;;;;;;;;;10440429;28;20041;-76
2022/06/15 17:57:36;;;;;;;6.45;4.20;;;;;;;;;;10436584;28;20129;-75
2022/06/15 18:02:39;;;;;;;10.15;4.95;;;;;;;;;;10431302;28;20107;-74
2022/06/15 18:07:43;;;;;;;9.48;4.28;;;;;;;;;;10438382;28;20041;-76
2022/06/15 18:12:46;;;;;;;8.05;4.63;;;;;;;;;;10416899;28;20119;-77
2022/06/15 18:17:50;;;;;;;;;;;;;;;;;;10418466;28;20146;-76
2022/06/15 18:22:55;;;;;;;9.95;4.70;;;;;;;;;;10425731;28;20002;-77
2022/06/15 18:28:00;;;;;;;5.47;3.55;;;;;;;;;;10429213;28;20075;-77
2022/06/15 18:33:03;;;;;;;7.22;3.97;;;;;;;;;;10434809;28;20170;-76
2022/06/15 18:38:09;;;;;;;7.63;3.78;;;;;;;;;;10430086;28;20465;-76
2022/06/15 18:48:33;;;;;;;6.70;3.60;;;;;;;;;;10436769;28;20097;-75
2022/06/15 18:53:36;;;;;;;;;;;;;;;;;;10433936;28;20516;-76
2022/06/15 18:58:40;;;;;;;9.07;5.10;;;;;;;;;;10419858;28;19944;-75
2022/06/15 19:03:43;;;;;;;14.68;7.88;;;;;;;;;;10432797;28;20044;-76
2022/06/15 19:08:52;;;;;;;;;;;;;;;;;;10416748;28;20496;-76
2022/06/15 19:13:56;;;;;;;7.13;4.60;;;;;;;;;;10412659;28;20023;-77
2022/06/15 19:19:05;;;;;;;9.93;5.00;;;;;;;;;;10432745;28;20033;-74
2022/06/15 19:24:08;;;;;;;;;;;;;;;;;;10409521;28;20141;-75
2022/06/15 19:29:12;;;;;;;22.80;13.25;;;;;;;;;;10415720;28;19927;-76
2022/06/15 19:34:14;;;;;;;6.63;4.32;;;;;;;;;;10430283;28;20132;-76
2022/06/15 19:39:17;;;;;;;11.57;5.93;;;;;;;;;;10426885;28;20075;-76
2022/06/15 19:44:20;;;;;;;;;;;;;;;;;;10424588;28;20398;-74
2022/06/15 19:49:25;;;;;;;17.60;6.32;;;;;;;;;;10432735;28;19924;-76
2022/06/15 19:54:28;;;;;;;12.75;5.38;;;;;;;;;;10414315;28;20464;-76
2022/06/15 19:59:31;;;;;;;12.73;8.18;;;;;;;;;;10414838;28;20065;-76
2022/06/15 20:04:35;;;;;;;14.25;8.13;;;;;;;;;;10414673;28;20912;-76
2022/06/15 20:09:38;;;;;;;28.20;15.27;;;;;;;;;;10414462;28;20155;-74
2022/06/15 20:14:40;;;;;;;;;;;;;;;;;;10411316;28;20622;-77
2022/06/15 20:19:47;;;;;;;16.23;10.13;;;;;;;;;;10428807;28;19935;-76
2022/06/15 20:24:50;;;;;;;8.63;5.78;;;;;;;;;;10410281;28;20128;-74
2022/06/15 20:29:52;;;;;;;;;;;;;;;;;;10409630;28;20025;-76
2022/06/15 20:34:57;;;;;;;23.67;12.32;;;;;;;;;;10408092;28;19921;-76
2022/06/15 20:39:59;;;;;;;17.85;9.13;;;;;;;;;;10405440;28;20053;-77
2022/06/15 20:45:05;;;;;;;26.52;12.52;;;;;;;;;;10421022;28;20041;-76
2022/06/15 20:50:10;;;;;;;20.08;11.07;;;;;;;;;;10401650;28;20486;-76
2022/06/15 20:55:13;;;;;;;10.10;6.35;;;;;;;;;;10419109;28;20040;-78
2022/06/15 21:00:16;;;;;;;22.65;12.13;;;;;;;;;;10430204;28;20029;-76
2022/06/15 21:05:24;;;;;;;17.55;9.65;;;;;;;;;;10423229;28;20678;-77
2022/06/15 21:21:16;;;;;;;15.18;7.55;;;;;;;;;;10446698;28;20064;-77
2022/06/15 21:26:19;;;;;;;17.83;9.10;;;;;;;;;;10436195;28;20385;-76
2022/06/15 21:31:22;;;;;;;9.70;5.68;;;;;;;;;;10444928;28;20121;-78
2022/06/15 21:36:27;;;;;;;7.80;5.20;;;;;;;;;;10443824;28;20266;-77
2022/06/15 21:41:31;;;;;;;11.07;6.35;;;;;;;;;;10423672;28;20036;-77
2022/06/15 21:46:37;;;;;;;10.52;5.35;;;;;;;;;;10444833;28;20032;-74
2022/06/15 21:51:42;;;;;;;7.85;4.45;;;;;;;;;;10424832;28;20371;-77
2022/06/15 21:56:44;;;;;;;8.30;5.13;;;;;;;;;;10448602;28;20405;-77
2022/06/15 22:01:47;;;;;;;11.88;6.85;;;;;;;;;;10426980;28;20099;-76
2022/06/15 22:06:51;;;;;;;9.40;6.22;;;;;;;;;;10426394;28;20416;-76
2022/06/15 22:11:54;;;;;;;8.35;5.32;;;;;;;;;;10441692;28;20219;-74
2022/06/15 22:16:57;;;;;;;7.78;5.38;;;;;;;;;;10434374;28;20479;-76
2022/06/15 22:22:01;;;;;;;7.82;5.22;;;;;;;;;;10435072;28;20037;-76
2022/06/15 22:27:04;;;;;;;6.93;4.70;;;;;;;;;;10421901;28;20041;-74
2022/06/15 22:32:07;;;;;;;9.25;5.40;;;;;;;;;;10435149;28;20532;-73
2022/06/15 22:37:12;;;;;;;7.35;4.80;;;;;;;;;;10417271;28;20386;-77
2022/06/15 22:42:16;;;;;;;14.13;5.05;;;;;;;;;;10421845;28;20044;-73
2022/06/15 22:47:19;;;;;;;14.02;6.97;;;;;;;;;;10433684;28;20049;-77
2022/06/15 22:52:23;;;;;;;10.63;6.63;;;;;;;;;;10431648;28;20052;-76
2022/06/15 22:57:26;;;;;;;7.43;5.85;;;;;;;;;;10437177;28;20048;-76
2022/06/15 23:02:29;;;;;;;8.68;6.03;;;;;;;;;;10417723;28;20072;-76
2022/06/15 23:07:33;;;;;;;11.25;5.97;;;;;;;;;;10439193;28;20504;-75
2022/06/15 23:12:35;;;;;;;11.57;5.88;;;;;;;;;;10433255;28;20513;-76
2022/06/15 23:17:39;;;;;;;9.75;6.10;;;;;;;;;;10415513;28;20053;-76
2022/06/15 23:22:43;;;;;;;9.95;6.05;;;;;;;;;;10430949;28;20418;-77
2022/06/15 23:27:46;;;;;;;12.10;6.97;;;;;;;;;;10432240;28;20068;-76
2022/06/15 23:32:49;;;;;;;8.38;5.63;;;;;;;;;;10414425;28;20037;-75
2022/06/15 23:37:53;;;;;;;;;;;;;;;;;;10432593;28;20041;-76
2022/06/15 23:42:57;;;;;;;10.43;5.20;;;;;;;;;;10412317;28;20599;-76
2022/06/15 23:48:01;;;;;;;8.00;5.10;;;;;;;;;;10413172;28;20533;-77
2022/06/15 23:53:04;;;;;;;7.13;5.13;;;;;;;;;;10416714;28;20042;-76
2022/06/15 23:58:09;;;;;;;5.70;4.03;;;;;;;;;;10433747;28;20044;-75
